sensor_id;sensor_type;location;lat;lon;timestamp;P1;durP1;ratioP1;P2;durP2;ratioP2
67776;SDS011;54576;52.020;5.536;2024-01-16T00:02:22;12.93;;;1.85;;
67776;SDS011;54576;52.020;5.536;2024-01-16T00:04:48;3.42;;;1.23;;
67776;SDS011;54576;52.020;5.536;2024-01-16T00:07:13;7.00;;;1.60;;
67776;SDS011;54576;52.020;5.536;2024-01-16T00:09:39;8.65;;;2.17;;
67776;SDS011;54576;52.020;5.536;2024-01-16T00:12:05;7.80;;;1.67;;
67776;SDS011;54576;52.020;5.536;2024-01-16T00:14:34;7.90;;;1.05;;
67776;SDS011;54576;52.020;5.536;2024-01-16T00:17:00;13.10;;;1.38;;
67776;SDS011;54576;52.020;5.536;2024-01-16T00:19:26;4.50;;;1.30;;
67776;SDS011;54576;52.020;5.536;2024-01-16T00:21:51;4.80;;;1.52;;
67776;SDS011;54576;52.020;5.536;2024-01-16T00:24:17;4.88;;;0.95;;
67776;SDS011;54576;52.020;5.536;2024-01-16T00:26:43;8.38;;;1.80;;
67776;SDS011;54576;52.020;5.536;2024-01-16T00:29:08;14.77;;;1.25;;
67776;SDS011;54576;52.020;5.536;2024-01-16T00:31:34;7.10;;;1.35;;
67776;SDS011;54576;52.020;5.536;2024-01-16T00:34:00;13.88;;;1.48;;
67776;SDS011;54576;52.020;5.536;2024-01-16T00:36:26;8.60;;;1.55;;
67776;SDS011;54576;52.020;5.536;2024-01-16T00:38:51;6.93;;;1.00;;
67776;SDS011;54576;52.020;5.536;2024-01-16T00:41:17;4.40;;;1.27;;
67776;SDS011;54576;52.020;5.536;2024-01-16T00:43:43;14.93;;;1.58;;
67776;SDS011;54576;52.020;5.536;2024-01-16T00:46:09;17.00;;;1.85;;
67776;SDS011;54576;52.020;5.536;2024-01-16T00:48:35;6.13;;;1.30;;
67776;SDS011;54576;52.020;5.536;2024-01-16T00:51:00;9.98;;;1.60;;
67776;SDS011;54576;52.020;5.536;2024-01-16T00:53:26;3.53;;;1.15;;
67776;SDS011;54576;52.020;5.536;2024-01-16T00:55:52;11.35;;;1.27;;
67776;SDS011;54576;52.020;5.536;2024-01-16T00:58:19;4.22;;;1.33;;
67776;SDS011;54576;52.020;5.536;2024-01-16T01:00:46;13.15;;;1.70;;
67776;SDS011;54576;52.020;5.536;2024-01-16T01:03:12;10.32;;;1.27;;
67776;SDS011;54576;52.020;5.536;2024-01-16T01:05:37;12.43;;;1.60;;
67776;SDS011;54576;52.020;5.536;2024-01-16T01:08:03;4.43;;;1.70;;
67776;SDS011;54576;52.020;5.536;2024-01-16T01:10:29;5.03;;;1.20;;
67776;SDS011;54576;52.020;5.536;2024-01-16T01:12:55;13.50;;;1.52;;
67776;SDS011;54576;52.020;5.536;2024-01-16T01:15:20;5.55;;;1.27;;
67776;SDS011;54576;52.020;5.536;2024-01-16T01:17:48;11.63;;;1.70;;
67776;SDS011;54576;52.020;5.536;2024-01-16T01:20:14;11.80;;;1.52;;
67776;SDS011;54576;52.020;5.536;2024-01-16T01:22:40;9.40;;;2.03;;
67776;SDS011;54576;52.020;5.536;2024-01-16T01:25:06;20.80;;;1.65;;
67776;SDS011;54576;52.020;5.536;2024-01-16T01:27:32;7.43;;;1.67;;
67776;SDS011;54576;52.020;5.536;2024-01-16T01:29:58;7.50;;;1.50;;
67776;SDS011;54576;52.020;5.536;2024-01-16T01:32:23;10.43;;;1.85;;
67776;SDS011;54576;52.020;5.536;2024-01-16T01:34:49;9.55;;;1.30;;
67776;SDS011;54576;52.020;5.536;2024-01-16T01:37:14;8.45;;;1.35;;
67776;SDS011;54576;52.020;5.536;2024-01-16T01:39:40;10.38;;;1.40;;
67776;SDS011;54576;52.020;5.536;2024-01-16T01:42:05;7.10;;;1.45;;
67776;SDS011;54576;52.020;5.536;2024-01-16T01:44:31;10.25;;;1.30;;
67776;SDS011;54576;52.020;5.536;2024-01-16T01:46:57;9.75;;;2.00;;
67776;SDS011;54576;52.020;5.536;2024-01-16T01:49:24;7.82;;;1.90;;
67776;SDS011;54576;52.020;5.536;2024-01-16T01:51:51;7.32;;;1.92;;
67776;SDS011;54576;52.020;5.536;2024-01-16T01:54:17;11.25;;;2.03;;
67776;SDS011;54576;52.020;5.536;2024-01-16T01:56:44;8.23;;;1.98;;
67776;SDS011;54576;52.020;5.536;2024-01-16T01:59:11;8.50;;;1.35;;
67776;SDS011;54576;52.020;5.536;2024-01-16T02:01:38;24.23;;;2.05;;
67776;SDS011;54576;52.020;5.536;2024-01-16T02:04:05;8.07;;;1.48;;
67776;SDS011;54576;52.020;5.536;2024-01-16T02:06:31;9.32;;;2.50;;
67776;SDS011;54576;52.020;5.536;2024-01-16T02:08:57;6.55;;;1.67;;
67776;SDS011;54576;52.020;5.536;2024-01-16T02:11:24;18.80;;;2.10;;
67776;SDS011;54576;52.020;5.536;2024-01-16T02:13:50;10.88;;;1.98;;
67776;SDS011;54576;52.020;5.536;2024-01-16T02:16:22;20.08;;;1.88;;
67776;SDS011;54576;52.020;5.536;2024-01-16T02:18:49;13.07;;;2.55;;
67776;SDS011;54576;52.020;5.536;2024-01-16T02:21:25;5.22;;;1.67;;
67776;SDS011;54576;52.020;5.536;2024-01-16T02:23:55;14.00;;;2.75;;
67776;SDS011;54576;52.020;5.536;2024-01-16T02:26:21;15.07;;;1.90;;
67776;SDS011;54576;52.020;5.536;2024-01-16T02:28:47;12.35;;;1.83;;
67776;SDS011;54576;52.020;5.536;2024-01-16T02:31:13;16.88;;;1.77;;
67776;SDS011;54576;52.020;5.536;2024-01-16T02:33:38;10.18;;;1.48;;
67776;SDS011;54576;52.020;5.536;2024-01-16T02:36:04;11.43;;;1.90;;
67776;SDS011;54576;52.020;5.536;2024-01-16T02:38:30;7.63;;;1.50;;
67776;SDS011;54576;52.020;5.536;2024-01-16T02:40:55;11.27;;;3.25;;
67776;SDS011;54576;52.020;5.536;2024-01-16T02:43:21;6.32;;;1.20;;
67776;SDS011;54576;52.020;5.536;2024-01-16T02:45:52;5.93;;;1.35;;
67776;SDS011;54576;52.020;5.536;2024-01-16T02:48:18;8.13;;;1.50;;
67776;SDS011;54576;52.020;5.536;2024-01-16T02:50:43;6.25;;;1.48;;
67776;SDS011;54576;52.020;5.536;2024-01-16T02:53:09;7.05;;;1.45;;
67776;SDS011;54576;52.020;5.536;2024-01-16T02:55:35;8.18;;;1.30;;
67776;SDS011;54576;52.020;5.536;2024-01-16T02:58:00;2.40;;;1.15;;
67776;SDS011;54576;52.020;5.536;2024-01-16T03:00:28;8.73;;;1.52;;
67776;SDS011;54576;52.020;5.536;2024-01-16T03:02:54;6.18;;;1.17;;
67776;SDS011;54576;52.020;5.536;2024-01-16T03:05:19;7.00;;;1.45;;
67776;SDS011;54576;52.020;5.536;2024-01-16T03:07:45;6.45;;;1.20;;
67776;SDS011;54576;52.020;5.536;2024-01-16T03:10:14;3.70;;;1.00;;
67776;SDS011;54576;52.020;5.536;2024-01-16T03:12:39;8.48;;;1.10;;
67776;SDS011;54576;52.020;5.536;2024-01-16T03:15:05;8.27;;;1.10;;
67776;SDS011;54576;52.020;5.536;2024-01-16T03:17:31;4.90;;;1.05;;
67776;SDS011;54576;52.020;5.536;2024-01-16T03:19:56;12.02;;;1.65;;
67776;SDS011;54576;52.020;5.536;2024-01-16T03:22:22;5.57;;;1.35;;
67776;SDS011;54576;52.020;5.536;2024-01-16T03:24:49;4.97;;;1.05;;
67776;SDS011;54576;52.020;5.536;2024-01-16T03:27:15;8.45;;;1.63;;
67776;SDS011;54576;52.020;5.536;2024-01-16T03:29:40;6.38;;;1.40;;
67776;SDS011;54576;52.020;5.536;2024-01-16T03:32:06;14.88;;;1.58;;
67776;SDS011;54576;52.020;5.536;2024-01-16T03:34:31;12.68;;;1.15;;
67776;SDS011;54576;52.020;5.536;2024-01-16T03:36:57;9.63;;;1.05;;
67776;SDS011;54576;52.020;5.536;2024-01-16T03:39:23;3.50;;;0.75;;
67776;SDS011;54576;52.020;5.536;2024-01-16T03:41:48;9.68;;;0.80;;
67776;SDS011;54576;52.020;5.536;2024-01-16T03:44:14;11.65;;;1.65;;
67776;SDS011;54576;52.020;5.536;2024-01-16T03:46:39;9.80;;;1.30;;
67776;SDS011;54576;52.020;5.536;2024-01-16T03:49:05;2.72;;;1.08;;
67776;SDS011;54576;52.020;5.536;2024-01-16T03:51:30;9.02;;;1.27;;
67776;SDS011;54576;52.020;5.536;2024-01-16T03:53:56;6.38;;;1.13;;
67776;SDS011;54576;52.020;5.536;2024-01-16T03:56:22;7.70;;;1.88;;
67776;SDS011;54576;52.020;5.536;2024-01-16T03:58:48;7.13;;;1.35;;
67776;SDS011;54576;52.020;5.536;2024-01-16T04:01:13;3.67;;;1.10;;
67776;SDS011;54576;52.020;5.536;2024-01-16T04:03:39;7.07;;;1.50;;
67776;SDS011;54576;52.020;5.536;2024-01-16T04:06:17;6.20;;;1.40;;
67776;SDS011;54576;52.020;5.536;2024-01-16T04:08:43;2.67;;;1.50;;
67776;SDS011;54576;52.020;5.536;2024-01-16T04:11:12;8.05;;;1.45;;
67776;SDS011;54576;52.020;5.536;2024-01-16T04:13:38;5.35;;;1.52;;
67776;SDS011;54576;52.020;5.536;2024-01-16T04:16:05;8.80;;;1.23;;
67776;SDS011;54576;52.020;5.536;2024-01-16T04:18:35;9.82;;;1.55;;
67776;SDS011;54576;52.020;5.536;2024-01-16T04:21:02;7.00;;;1.50;;
67776;SDS011;54576;52.020;5.536;2024-01-16T04:23:28;7.82;;;1.75;;
67776;SDS011;54576;52.020;5.536;2024-01-16T04:25:54;6.82;;;1.67;;
67776;SDS011;54576;52.020;5.536;2024-01-16T04:28:19;12.40;;;1.85;;
67776;SDS011;54576;52.020;5.536;2024-01-16T04:30:45;8.57;;;1.63;;
67776;SDS011;54576;52.020;5.536;2024-01-16T04:33:14;8.25;;;2.28;;
67776;SDS011;54576;52.020;5.536;2024-01-16T04:35:39;7.72;;;1.52;;
67776;SDS011;54576;52.020;5.536;2024-01-16T04:38:05;22.27;;;2.03;;
67776;SDS011;54576;52.020;5.536;2024-01-16T04:40:30;5.53;;;1.33;;
67776;SDS011;54576;52.020;5.536;2024-01-16T04:42:56;6.35;;;1.55;;
67776;SDS011;54576;52.020;5.536;2024-01-16T04:45:22;4.35;;;1.27;;
67776;SDS011;54576;52.020;5.536;2024-01-16T04:47:48;8.57;;;1.20;;
67776;SDS011;54576;52.020;5.536;2024-01-16T04:50:13;8.55;;;1.50;;
67776;SDS011;54576;52.020;5.536;2024-01-16T04:52:39;5.32;;;1.42;;
67776;SDS011;54576;52.020;5.536;2024-01-16T04:55:05;4.18;;;1.13;;
67776;SDS011;54576;52.020;5.536;2024-01-16T04:57:31;7.88;;;1.20;;
67776;SDS011;54576;52.020;5.536;2024-01-16T04:59:56;3.60;;;1.30;;
67776;SDS011;54576;52.020;5.536;2024-01-16T05:02:22;11.60;;;1.80;;
67776;SDS011;54576;52.020;5.536;2024-01-16T05:04:47;6.82;;;1.40;;
67776;SDS011;54576;52.020;5.536;2024-01-16T05:07:14;12.10;;;2.38;;
67776;SDS011;54576;52.020;5.536;2024-01-16T05:09:40;10.93;;;1.35;;
67776;SDS011;54576;52.020;5.536;2024-01-16T05:12:06;12.15;;;1.42;;
67776;SDS011;54576;52.020;5.536;2024-01-16T05:14:31;4.18;;;1.45;;
67776;SDS011;54576;52.020;5.536;2024-01-16T05:16:57;9.90;;;1.40;;
67776;SDS011;54576;52.020;5.536;2024-01-16T05:19:22;5.30;;;1.35;;
67776;SDS011;54576;52.020;5.536;2024-01-16T05:21:48;8.75;;;1.55;;
67776;SDS011;54576;52.020;5.536;2024-01-16T05:24:14;2.65;;;1.23;;
67776;SDS011;54576;52.020;5.536;2024-01-16T05:26:39;6.72;;;1.30;;
67776;SDS011;54576;52.020;5.536;2024-01-16T05:29:05;3.58;;;1.30;;
67776;SDS011;54576;52.020;5.536;2024-01-16T05:31:31;3.03;;;1.02;;
67776;SDS011;54576;52.020;5.536;2024-01-16T05:33:57;7.00;;;1.60;;
67776;SDS011;54576;52.020;5.536;2024-01-16T05:36:23;10.45;;;1.60;;
67776;SDS011;54576;52.020;5.536;2024-01-16T05:38:49;11.68;;;1.13;;
67776;SDS011;54576;52.020;5.536;2024-01-16T05:41:15;5.22;;;1.30;;
67776;SDS011;54576;52.020;5.536;2024-01-16T05:43:41;6.30;;;1.63;;
67776;SDS011;54576;52.020;5.536;2024-01-16T05:46:06;9.35;;;1.88;;
67776;SDS011;54576;52.020;5.536;2024-01-16T05:48:32;6.30;;;1.30;;
67776;SDS011;54576;52.020;5.536;2024-01-16T05:50:57;4.97;;;1.20;;
67776;SDS011;54576;52.020;5.536;2024-01-16T05:53:23;9.65;;;1.65;;
67776;SDS011;54576;52.020;5.536;2024-01-16T05:55:49;8.68;;;1.45;;
67776;SDS011;54576;52.020;5.536;2024-01-16T05:58:15;6.05;;;1.77;;
67776;SDS011;54576;52.020;5.536;2024-01-16T06:00:40;3.80;;;1.15;;
67776;SDS011;54576;52.020;5.536;2024-01-16T06:03:06;12.35;;;1.30;;
67776;SDS011;54576;52.020;5.536;2024-01-16T06:05:32;6.97;;;1.70;;
67776;SDS011;54576;52.020;5.536;2024-01-16T06:07:57;9.20;;;2.03;;
67776;SDS011;54576;52.020;5.536;2024-01-16T06:10:23;6.40;;;1.38;;
67776;SDS011;54576;52.020;5.536;2024-01-16T06:12:48;9.55;;;1.83;;
67776;SDS011;54576;52.020;5.536;2024-01-16T06:15:14;6.53;;;1.88;;
67776;SDS011;54576;52.020;5.536;2024-01-16T06:17:40;9.25;;;2.35;;
67776;SDS011;54576;52.020;5.536;2024-01-16T06:20:06;9.82;;;2.22;;
67776;SDS011;54576;52.020;5.536;2024-01-16T06:22:32;6.63;;;1.92;;
67776;SDS011;54576;52.020;5.536;2024-01-16T06:24:57;10.07;;;2.40;;
67776;SDS011;54576;52.020;5.536;2024-01-16T06:27:23;7.30;;;2.85;;
67776;SDS011;54576;52.020;5.536;2024-01-16T06:29:54;2.78;;;2.40;;
67776;SDS011;54576;52.020;5.536;2024-01-16T06:32:29;8.38;;;2.80;;
67776;SDS011;54576;52.020;5.536;2024-01-16T06:34:55;9.77;;;3.00;;
67776;SDS011;54576;52.020;5.536;2024-01-16T06:37:21;6.63;;;3.53;;
67776;SDS011;54576;52.020;5.536;2024-01-16T06:39:46;6.60;;;2.85;;
67776;SDS011;54576;52.020;5.536;2024-01-16T06:42:12;8.45;;;3.40;;
67776;SDS011;54576;52.020;5.536;2024-01-16T06:44:38;4.93;;;2.55;;
67776;SDS011;54576;52.020;5.536;2024-01-16T06:47:03;11.13;;;2.65;;
67776;SDS011;54576;52.020;5.536;2024-01-16T06:49:30;15.35;;;2.53;;
67776;SDS011;54576;52.020;5.536;2024-01-16T06:51:55;13.05;;;2.60;;
67776;SDS011;54576;52.020;5.536;2024-01-16T06:54:22;7.28;;;2.70;;
67776;SDS011;54576;52.020;5.536;2024-01-16T06:56:48;6.63;;;2.70;;
67776;SDS011;54576;52.020;5.536;2024-01-16T06:59:14;16.05;;;2.63;;
67776;SDS011;54576;52.020;5.536;2024-01-16T07:01:41;14.40;;;2.60;;
67776;SDS011;54576;52.020;5.536;2024-01-16T07:04:06;8.85;;;2.40;;
67776;SDS011;54576;52.020;5.536;2024-01-16T07:06:32;8.65;;;2.00;;
67776;SDS011;54576;52.020;5.536;2024-01-16T07:08:57;11.20;;;2.30;;
67776;SDS011;54576;52.020;5.536;2024-01-16T07:11:23;11.48;;;2.80;;
67776;SDS011;54576;52.020;5.536;2024-01-16T07:13:48;6.15;;;2.50;;
67776;SDS011;54576;52.020;5.536;2024-01-16T07:16:14;9.85;;;2.83;;
67776;SDS011;54576;52.020;5.536;2024-01-16T07:18:39;6.90;;;2.65;;
67776;SDS011;54576;52.020;5.536;2024-01-16T07:21:19;6.47;;;2.65;;
67776;SDS011;54576;52.020;5.536;2024-01-16T07:23:46;10.27;;;2.80;;
67776;SDS011;54576;52.020;5.536;2024-01-16T07:26:11;21.92;;;4.15;;
67776;SDS011;54576;52.020;5.536;2024-01-16T07:28:37;18.67;;;4.50;;
67776;SDS011;54576;52.020;5.536;2024-01-16T07:31:03;11.27;;;3.80;;
67776;SDS011;54576;52.020;5.536;2024-01-16T07:33:28;11.07;;;3.92;;
67776;SDS011;54576;52.020;5.536;2024-01-16T07:35:54;10.38;;;4.30;;
67776;SDS011;54576;52.020;5.536;2024-01-16T07:38:20;13.68;;;3.83;;
67776;SDS011;54576;52.020;5.536;2024-01-16T07:40:45;15.80;;;4.57;;
67776;SDS011;54576;52.020;5.536;2024-01-16T07:43:11;14.45;;;4.90;;
67776;SDS011;54576;52.020;5.536;2024-01-16T07:45:37;13.52;;;3.63;;
67776;SDS011;54576;52.020;5.536;2024-01-16T07:48:02;20.73;;;4.90;;
67776;SDS011;54576;52.020;5.536;2024-01-16T07:50:31;12.05;;;4.32;;
67776;SDS011;54576;52.020;5.536;2024-01-16T07:52:56;20.45;;;4.25;;
67776;SDS011;54576;52.020;5.536;2024-01-16T07:55:22;14.10;;;4.45;;
67776;SDS011;54576;52.020;5.536;2024-01-16T07:57:48;11.52;;;4.30;;
67776;SDS011;54576;52.020;5.536;2024-01-16T08:00:13;15.38;;;4.35;;
67776;SDS011;54576;52.020;5.536;2024-01-16T08:02:40;15.98;;;4.28;;
67776;SDS011;54576;52.020;5.536;2024-01-16T08:05:06;15.60;;;4.53;;
67776;SDS011;54576;52.020;5.536;2024-01-16T08:07:32;12.60;;;4.28;;
67776;SDS011;54576;52.020;5.536;2024-01-16T08:09:59;10.77;;;4.60;;
67776;SDS011;54576;52.020;5.536;2024-01-16T08:12:25;10.30;;;3.60;;
67776;SDS011;54576;52.020;5.536;2024-01-16T08:14:50;13.70;;;4.50;;
67776;SDS011;54576;52.020;5.536;2024-01-16T08:17:17;8.52;;;3.88;;
67776;SDS011;54576;52.020;5.536;2024-01-16T08:19:42;14.82;;;3.67;;
67776;SDS011;54576;52.020;5.536;2024-01-16T08:22:08;17.85;;;3.90;;
67776;SDS011;54576;52.020;5.536;2024-01-16T08:24:33;13.35;;;3.70;;
67776;SDS011;54576;52.020;5.536;2024-01-16T08:26:59;15.88;;;3.60;;
67776;SDS011;54576;52.020;5.536;2024-01-16T08:29:25;12.20;;;3.30;;
67776;SDS011;54576;52.020;5.536;2024-01-16T08:31:50;11.63;;;3.00;;
67776;SDS011;54576;52.020;5.536;2024-01-16T08:34:19;19.43;;;3.70;;
67776;SDS011;54576;52.020;5.536;2024-01-16T08:36:44;10.73;;;3.45;;
67776;SDS011;54576;52.020;5.536;2024-01-16T08:39:10;17.33;;;3.17;;
67776;SDS011;54576;52.020;5.536;2024-01-16T08:41:36;8.52;;;3.20;;
67776;SDS011;54576;52.020;5.536;2024-01-16T08:44:02;17.63;;;4.32;;
67776;SDS011;54576;52.020;5.536;2024-01-16T08:46:27;7.90;;;3.28;;
67776;SDS011;54576;52.020;5.536;2024-01-16T08:48:53;9.45;;;3.25;;
67776;SDS011;54576;52.020;5.536;2024-01-16T08:51:19;10.48;;;3.63;;
67776;SDS011;54576;52.020;5.536;2024-01-16T08:53:44;9.57;;;4.00;;
67776;SDS011;54576;52.020;5.536;2024-01-16T08:56:11;13.20;;;3.15;;
67776;SDS011;54576;52.020;5.536;2024-01-16T08:58:37;15.88;;;3.65;;
67776;SDS011;54576;52.020;5.536;2024-01-16T09:01:03;10.07;;;3.83;;
67776;SDS011;54576;52.020;5.536;2024-01-16T09:03:34;12.68;;;3.30;;
67776;SDS011;54576;52.020;5.536;2024-01-16T09:06:01;13.87;;;3.50;;
67776;SDS011;54576;52.020;5.536;2024-01-16T09:08:27;11.68;;;3.70;;
67776;SDS011;54576;52.020;5.536;2024-01-16T09:10:53;10.02;;;3.88;;
67776;SDS011;54576;52.020;5.536;2024-01-16T09:13:18;13.07;;;3.05;;
67776;SDS011;54576;52.020;5.536;2024-01-16T09:15:45;14.77;;;3.45;;
67776;SDS011;54576;52.020;5.536;2024-01-16T09:18:14;12.27;;;3.55;;
67776;SDS011;54576;52.020;5.536;2024-01-16T09:20:43;10.85;;;3.28;;
67776;SDS011;54576;52.020;5.536;2024-01-16T09:23:09;11.45;;;2.83;;
67776;SDS011;54576;52.020;5.536;2024-01-16T09:25:34;21.15;;;3.72;;
67776;SDS011;54576;52.020;5.536;2024-01-16T09:28:01;15.15;;;3.92;;
67776;SDS011;54576;52.020;5.536;2024-01-16T09:30:27;10.48;;;4.03;;
67776;SDS011;54576;52.020;5.536;2024-01-16T09:32:53;6.35;;;2.53;;
67776;SDS011;54576;52.020;5.536;2024-01-16T09:35:18;12.02;;;3.20;;
67776;SDS011;54576;52.020;5.536;2024-01-16T09:37:44;13.55;;;3.58;;
67776;SDS011;54576;52.020;5.536;2024-01-16T09:40:10;13.18;;;3.83;;
67776;SDS011;54576;52.020;5.536;2024-01-16T09:42:36;11.57;;;3.17;;
67776;SDS011;54576;52.020;5.536;2024-01-16T09:45:02;17.90;;;5.25;;
67776;SDS011;54576;52.020;5.536;2024-01-16T09:47:29;10.73;;;3.35;;
67776;SDS011;54576;52.020;5.536;2024-01-16T09:49:57;19.90;;;3.43;;
67776;SDS011;54576;52.020;5.536;2024-01-16T09:52:25;11.77;;;4.15;;
67776;SDS011;54576;52.020;5.536;2024-01-16T09:54:50;6.07;;;3.53;;
67776;SDS011;54576;52.020;5.536;2024-01-16T09:57:17;6.70;;;3.22;;
67776;SDS011;54576;52.020;5.536;2024-01-16T09:59:47;9.55;;;3.65;;
67776;SDS011;54576;52.020;5.536;2024-01-16T10:02:13;6.10;;;3.03;;
67776;SDS011;54576;52.020;5.536;2024-01-16T10:04:42;8.95;;;3.20;;
67776;SDS011;54576;52.020;5.536;2024-01-16T10:07:09;8.20;;;3.35;;
67776;SDS011;54576;52.020;5.536;2024-01-16T10:09:37;19.90;;;3.72;;
67776;SDS011;54576;52.020;5.536;2024-01-16T10:12:03;19.33;;;3.40;;
67776;SDS011;54576;52.020;5.536;2024-01-16T10:14:35;10.43;;;3.00;;
67776;SDS011;54576;52.020;5.536;2024-01-16T10:17:02;7.13;;;2.97;;
67776;SDS011;54576;52.020;5.536;2024-01-16T10:19:34;13.98;;;3.58;;
67776;SDS011;54576;52.020;5.536;2024-01-16T10:22:11;8.65;;;2.88;;
67776;SDS011;54576;52.020;5.536;2024-01-16T10:24:37;11.20;;;3.40;;
67776;SDS011;54576;52.020;5.536;2024-01-16T10:27:03;15.15;;;3.38;;
67776;SDS011;54576;52.020;5.536;2024-01-16T10:29:29;11.43;;;3.58;;
67776;SDS011;54576;52.020;5.536;2024-01-16T10:31:57;6.78;;;2.42;;
67776;SDS011;54576;52.020;5.536;2024-01-16T10:34:24;6.85;;;3.10;;
67776;SDS011;54576;52.020;5.536;2024-01-16T10:36:50;9.60;;;2.90;;
67776;SDS011;54576;52.020;5.536;2024-01-16T10:39:17;10.82;;;3.17;;
67776;SDS011;54576;52.020;5.536;2024-01-16T10:42:28;9.63;;;3.47;;
67776;SDS011;54576;52.020;5.536;2024-01-16T10:44:34;5.53;;;2.38;;
67776;SDS011;54576;52.020;5.536;2024-01-16T10:47:09;7.97;;;3.45;;
67776;SDS011;54576;52.020;5.536;2024-01-16T10:49:37;5.53;;;2.70;;
67776;SDS011;54576;52.020;5.536;2024-01-16T10:52:06;6.28;;;2.65;;
67776;SDS011;54576;52.020;5.536;2024-01-16T10:54:36;16.05;;;3.53;;
67776;SDS011;54576;52.020;5.536;2024-01-16T10:57:06;9.43;;;3.05;;
67776;SDS011;54576;52.020;5.536;2024-01-16T10:59:34;7.60;;;2.88;;
67776;SDS011;54576;52.020;5.536;2024-01-16T11:02:04;7.72;;;2.42;;
67776;SDS011;54576;52.020;5.536;2024-01-16T11:04:36;9.70;;;3.33;;
67776;SDS011;54576;52.020;5.536;2024-01-16T11:07:03;8.45;;;2.88;;
67776;SDS011;54576;52.020;5.536;2024-01-16T11:09:31;8.68;;;2.97;;
67776;SDS011;54576;52.020;5.536;2024-01-16T11:11:56;8.40;;;2.72;;
67776;SDS011;54576;52.020;5.536;2024-01-16T11:14:23;12.85;;;2.80;;
67776;SDS011;54576;52.020;5.536;2024-01-16T11:16:51;9.43;;;2.67;;
67776;SDS011;54576;52.020;5.536;2024-01-16T11:19:17;5.72;;;2.05;;
67776;SDS011;54576;52.020;5.536;2024-01-16T11:21:44;4.13;;;2.47;;
67776;SDS011;54576;52.020;5.536;2024-01-16T11:24:10;6.07;;;2.50;;
67776;SDS011;54576;52.020;5.536;2024-01-16T11:26:40;11.68;;;2.85;;
67776;SDS011;54576;52.020;5.536;2024-01-16T11:29:33;5.55;;;2.00;;
67776;SDS011;54576;52.020;5.536;2024-01-16T11:32:00;7.55;;;2.10;;
67776;SDS011;54576;52.020;5.536;2024-01-16T11:37:12;5.03;;;2.35;;
67776;SDS011;54576;52.020;5.536;2024-01-16T11:39:38;6.60;;;2.58;;
67776;SDS011;54576;52.020;5.536;2024-01-16T11:42:05;7.93;;;2.28;;
67776;SDS011;54576;52.020;5.536;2024-01-16T11:47:05;7.38;;;2.45;;
67776;SDS011;54576;52.020;5.536;2024-01-16T11:49:31;4.43;;;2.40;;
67776;SDS011;54576;52.020;5.536;2024-01-16T11:51:57;8.20;;;2.50;;
67776;SDS011;54576;52.020;5.536;2024-01-16T11:54:23;15.57;;;3.40;;
67776;SDS011;54576;52.020;5.536;2024-01-16T11:57:01;10.43;;;2.10;;
67776;SDS011;54576;52.020;5.536;2024-01-16T12:02:21;7.63;;;3.17;;
67776;SDS011;54576;52.020;5.536;2024-01-16T12:04:55;9.63;;;2.70;;
67776;SDS011;54576;52.020;5.536;2024-01-16T12:07:28;16.02;;;4.05;;
67776;SDS011;54576;52.020;5.536;2024-01-16T12:09:58;13.77;;;2.80;;
67776;SDS011;54576;52.020;5.536;2024-01-16T12:12:27;7.75;;;2.70;;
67776;SDS011;54576;52.020;5.536;2024-01-16T12:14:52;8.93;;;2.55;;
67776;SDS011;54576;52.020;5.536;2024-01-16T12:17:18;7.07;;;2.45;;
67776;SDS011;54576;52.020;5.536;2024-01-16T12:19:45;7.97;;;2.20;;
67776;SDS011;54576;52.020;5.536;2024-01-16T12:22:14;8.00;;;2.30;;
67776;SDS011;54576;52.020;5.536;2024-01-16T12:24:41;7.95;;;3.13;;
67776;SDS011;54576;52.020;5.536;2024-01-16T12:27:07;12.23;;;3.55;;
67776;SDS011;54576;52.020;5.536;2024-01-16T12:29:36;12.98;;;2.67;;
67776;SDS011;54576;52.020;5.536;2024-01-16T12:32:11;4.22;;;2.33;;
67776;SDS011;54576;52.020;5.536;2024-01-16T12:34:43;6.80;;;2.95;;
67776;SDS011;54576;52.020;5.536;2024-01-16T12:37:11;6.55;;;3.15;;
67776;SDS011;54576;52.020;5.536;2024-01-16T12:39:37;13.10;;;3.00;;
67776;SDS011;54576;52.020;5.536;2024-01-16T12:42:04;14.50;;;3.65;;
67776;SDS011;54576;52.020;5.536;2024-01-16T12:44:30;10.02;;;3.17;;
67776;SDS011;54576;52.020;5.536;2024-01-16T12:46:56;3.50;;;2.15;;
67776;SDS011;54576;52.020;5.536;2024-01-16T12:49:22;8.85;;;2.38;;
67776;SDS011;54576;52.020;5.536;2024-01-16T12:51:48;9.10;;;2.63;;
67776;SDS011;54576;52.020;5.536;2024-01-16T12:54:15;14.65;;;3.85;;
67776;SDS011;54576;52.020;5.536;2024-01-16T12:56:42;5.97;;;3.15;;
67776;SDS011;54576;52.020;5.536;2024-01-16T12:59:11;9.88;;;3.75;;
67776;SDS011;54576;52.020;5.536;2024-01-16T13:06:33;4.50;;;2.63;;
67776;SDS011;54576;52.020;5.536;2024-01-16T13:09:08;7.28;;;2.97;;
67776;SDS011;54576;52.020;5.536;2024-01-16T13:11:50;6.60;;;2.85;;
67776;SDS011;54576;52.020;5.536;2024-01-16T13:14:23;8.80;;;2.40;;
67776;SDS011;54576;52.020;5.536;2024-01-16T13:16:50;10.88;;;2.83;;
67776;SDS011;54576;52.020;5.536;2024-01-16T13:19:19;10.50;;;5.47;;
67776;SDS011;54576;52.020;5.536;2024-01-16T13:21:45;7.88;;;2.42;;
67776;SDS011;54576;52.020;5.536;2024-01-16T13:24:14;9.23;;;3.03;;
67776;SDS011;54576;52.020;5.536;2024-01-16T13:26:40;10.40;;;3.25;;
67776;SDS011;54576;52.020;5.536;2024-01-16T13:29:07;8.43;;;2.35;;
67776;SDS011;54576;52.020;5.536;2024-01-16T13:31:34;10.48;;;2.33;;
67776;SDS011;54576;52.020;5.536;2024-01-16T13:33:59;10.48;;;2.42;;
67776;SDS011;54576;52.020;5.536;2024-01-16T13:36:25;7.45;;;2.10;;
67776;SDS011;54576;52.020;5.536;2024-01-16T13:38:51;4.18;;;2.33;;
67776;SDS011;54576;52.020;5.536;2024-01-16T13:41:17;5.60;;;2.08;;
67776;SDS011;54576;52.020;5.536;2024-01-16T13:43:42;14.07;;;2.88;;
67776;SDS011;54576;52.020;5.536;2024-01-16T13:46:08;4.57;;;2.25;;
67776;SDS011;54576;52.020;5.536;2024-01-16T13:48:35;5.30;;;2.40;;
67776;SDS011;54576;52.020;5.536;2024-01-16T13:51:01;6.85;;;2.20;;
67776;SDS011;54576;52.020;5.536;2024-01-16T13:53:26;7.30;;;2.75;;
67776;SDS011;54576;52.020;5.536;2024-01-16T13:55:52;10.40;;;2.85;;
67776;SDS011;54576;52.020;5.536;2024-01-16T13:58:18;9.15;;;2.53;;
67776;SDS011;54576;52.020;5.536;2024-01-16T14:00:43;11.27;;;2.17;;
67776;SDS011;54576;52.020;5.536;2024-01-16T14:03:09;11.80;;;3.53;;
67776;SDS011;54576;52.020;5.536;2024-01-16T14:05:35;5.88;;;3.00;;
67776;SDS011;54576;52.020;5.536;2024-01-16T14:08:01;8.50;;;3.08;;
67776;SDS011;54576;52.020;5.536;2024-01-16T14:10:27;12.52;;;3.25;;
67776;SDS011;54576;52.020;5.536;2024-01-16T14:12:53;11.55;;;2.50;;
67776;SDS011;54576;52.020;5.536;2024-01-16T14:15:20;6.57;;;2.05;;
67776;SDS011;54576;52.020;5.536;2024-01-16T14:17:52;8.77;;;2.58;;
67776;SDS011;54576;52.020;5.536;2024-01-16T14:20:19;9.88;;;2.65;;
67776;SDS011;54576;52.020;5.536;2024-01-16T14:22:48;8.65;;;2.55;;
67776;SDS011;54576;52.020;5.536;2024-01-16T14:25:24;6.00;;;2.10;;
67776;SDS011;54576;52.020;5.536;2024-01-16T14:27:58;11.57;;;1.83;;
67776;SDS011;54576;52.020;5.536;2024-01-16T14:30:24;8.77;;;3.00;;
67776;SDS011;54576;52.020;5.536;2024-01-16T14:32:51;10.00;;;2.28;;
67776;SDS011;54576;52.020;5.536;2024-01-16T14:35:18;13.52;;;2.55;;
67776;SDS011;54576;52.020;5.536;2024-01-16T14:37:44;8.27;;;2.13;;
67776;SDS011;54576;52.020;5.536;2024-01-16T14:40:10;5.90;;;2.40;;
67776;SDS011;54576;52.020;5.536;2024-01-16T14:42:48;6.70;;;2.22;;
67776;SDS011;54576;52.020;5.536;2024-01-16T14:45:22;11.43;;;2.50;;
67776;SDS011;54576;52.020;5.536;2024-01-16T14:47:49;5.00;;;2.40;;
67776;SDS011;54576;52.020;5.536;2024-01-16T14:50:16;7.93;;;2.67;;
67776;SDS011;54576;52.020;5.536;2024-01-16T14:52:43;12.70;;;2.55;;
67776;SDS011;54576;52.020;5.536;2024-01-16T14:55:09;6.45;;;2.70;;